createdAt,value
2022-11-29T00:03:22.607Z,30.77
2022-11-29T00:08:24.345Z,32.58
2022-11-29T00:13:25.702Z,31.45
2022-11-29T00:18:27.036Z,32.50
2022-11-29T00:23:28.421Z,30.05
2022-11-29T00:28:29.747Z,34.30
2022-11-29T00:33:31.089Z,30.42
2022-11-29T00:38:32.456Z,34.88
2022-11-29T00:43:34.135Z,35.42
2022-11-29T00:48:35.812Z,35.08
2022-11-29T00:53:37.731Z,34.80
2022-11-29T00:58:39.120Z,34.25
2022-11-29T01:03:40.886Z,34.85
2022-11-29T01:08:42.584Z,37.58
2022-11-29T01:13:44.582Z,30.30
2022-11-29T01:18:46.152Z,41.17
2022-11-29T01:23:49.075Z,41.03
2022-11-29T01:28:52.029Z,41.05
2022-11-29T01:33:57.974Z,37.08
2022-11-29T01:39:04.444Z,36.55
2022-11-29T01:44:29.381Z,33.25
2022-11-29T01:49:38.131Z,35.05
2022-11-29T01:54:42.663Z,32.05
2022-11-29T01:59:49.462Z,38.65
2022-11-29T02:04:51.305Z,30.60
2022-11-29T02:09:52.695Z,28.88
2022-11-29T02:15:18.154Z,30.80
2022-11-29T02:20:57.080Z,33.78
2022-11-29T02:26:19.743Z,31.08
2022-11-29T02:31:54.108Z,30.92
2022-11-29T02:37:15.117Z,36.35
2022-11-29T02:42:31.260Z,33.97
2022-11-29T02:48:15.985Z,31.13
2022-11-29T02:53:22.783Z,39.38
2022-11-29T02:58:33.165Z,36.47
2022-11-29T03:03:51.963Z,35.60
2022-11-29T03:09:12.275Z,37.13
2022-11-29T03:14:25.889Z,32.67
2022-11-29T03:19:45.364Z,35.65
2022-11-29T03:24:54.963Z,34.75
2022-11-29T03:30:00.689Z,31.60
2022-11-29T03:35:25.525Z,31.52
2022-11-29T03:40:57.135Z,32.85
2022-11-29T03:46:03.871Z,33.55
2022-11-29T03:51:26.625Z,33.07
2022-11-29T03:56:37.836Z,35.83
2022-11-29T04:01:59.326Z,41.33
2022-11-29T04:07:01.017Z,36.63
2022-11-29T04:12:28.996Z,35.85
2022-11-29T04:17:36.287Z,34.55
2022-11-29T04:22:43.791Z,39.03
2022-11-29T04:28:03.661Z,40.22
2022-11-29T04:33:49.301Z,33.22
2022-11-29T04:39:00.050Z,36.25
2022-11-29T04:44:10.650Z,34.65
2022-11-29T04:49:37.053Z,30.88
2022-11-29T04:55:05.566Z,36.92
2022-11-29T05:00:22.645Z,37.42
2022-11-29T05:05:43.036Z,36.40
2022-11-29T05:11:09.282Z,36.08
2022-11-29T05:16:29.351Z,37.70
2022-11-29T05:21:46.817Z,33.72
2022-11-29T05:27:01.571Z,40.53
2022-11-29T05:32:40.695Z,34.70
2022-11-29T05:38:00.321Z,40.60
2022-11-29T05:43:38.576Z,37.05
2022-11-29T05:48:56.616Z,36.70
2022-11-29T05:54:00.954Z,47.17
2022-11-29T05:59:13.957Z,43.72
2022-11-29T06:04:21.954Z,46.08
2022-11-29T06:09:32.156Z,49.22
2022-11-29T06:14:45.896Z,38.38
2022-11-29T06:20:13.044Z,44.30
2022-11-29T06:25:48.302Z,52.67
2022-11-29T06:31:02.089Z,53.10
2022-11-29T06:36:22.924Z,53.95
2022-11-29T06:41:24.714Z,57.60
2022-11-29T06:46:42.226Z,58.95
2022-11-29T06:52:14.011Z,51.95
2022-11-29T06:57:40.121Z,51.95
2022-11-29T07:02:52.026Z,55.97
2022-11-29T07:07:57.043Z,46.55
2022-11-29T07:12:58.862Z,45.35
2022-11-29T07:18:29.577Z,37.35
2022-11-29T07:23:49.102Z,50.38
2022-11-29T07:28:57.680Z,51.70
2022-11-29T07:34:12.625Z,41.97
2022-11-29T07:39:24.815Z,44.03
2022-11-29T07:44:35.470Z,36.80
2022-11-29T07:49:36.839Z,40.53
2022-11-29T07:54:38.478Z,37.47
2022-11-29T07:59:39.836Z,38.28
2022-11-29T08:04:44.345Z,32.10
2022-11-29T08:09:46.449Z,30.55
2022-11-29T08:14:48.142Z,33.20
2022-11-29T08:19:49.613Z,33.15
2022-11-29T08:24:50.958Z,32.85
2022-11-29T08:29:52.464Z,35.22
2022-11-29T08:34:53.857Z,27.92
2022-11-29T08:39:56.057Z,28.50
2022-11-29T08:44:57.518Z,27.48
2022-11-29T08:50:01.756Z,29.27
2022-11-29T08:55:03.509Z,32.85
2022-11-29T09:00:06.366Z,28.48
2022-11-29T09:05:09.763Z,37.47
2022-11-29T09:10:12.133Z,39.25
2022-11-29T09:15:13.610Z,31.90
2022-11-29T09:20:15.079Z,35.20
2022-11-29T09:25:16.517Z,32.05
2022-11-29T09:30:23.549Z,30.95
2022-11-29T09:35:25.335Z,34.05
2022-11-29T09:40:32.602Z,36.22
2022-11-29T09:45:41.448Z,34.75
2022-11-29T09:50:57.719Z,41.70
2022-11-29T09:56:57.550Z,38.42
2022-11-29T10:02:21.348Z,35.90
2022-11-29T10:07:46.193Z,45.65
2022-11-29T10:12:56.431Z,43.08
2022-11-29T10:18:23.218Z,38.78
2022-11-29T10:23:32.758Z,38.08
2022-11-29T10:28:36.460Z,35.85
2022-11-29T10:33:40.501Z,36.88
2022-11-29T10:38:44.466Z,40.60
2022-11-29T10:43:46.295Z,40.67
2022-11-29T10:48:47.675Z,40.10
2022-11-29T10:53:50.054Z,35.60
2022-11-29T10:59:04.958Z,35.92
2022-11-29T11:04:09.913Z,34.58
2022-11-29T11:09:34.124Z,38.08
2022-11-29T11:14:38.676Z,38.60
2022-11-29T11:19:40.130Z,46.80
2022-11-29T11:24:44.086Z,45.53
2022-11-29T11:29:45.679Z,43.38
2022-11-29T11:34:55.756Z,44.55
2022-11-29T11:40:19.430Z,48.58
2022-11-29T11:45:53.509Z,44.03
2022-11-29T11:50:58.199Z,48.72
2022-11-29T11:56:07.181Z,48.47
2022-11-29T12:01:28.582Z,47.75
2022-11-29T12:07:08.589Z,45.38
2022-11-29T12:12:15.720Z,46.60
2022-11-29T12:17:48.965Z,46.97
2022-11-29T12:22:53.101Z,52.05
2022-11-29T12:27:54.530Z,46.25
2022-11-29T12:33:06.202Z,54.72
2022-11-29T12:38:24.477Z,51.80
2022-11-29T12:43:50.456Z,47.30
2022-11-29T12:49:06.239Z,42.85
2022-11-29T12:54:33.884Z,44.03
2022-11-29T12:59:48.006Z,43.60
2022-11-29T13:05:18.833Z,36.40
2022-11-29T13:10:26.638Z,40.17
2022-11-29T13:15:40.448Z,38.63
2022-11-29T13:20:50.941Z,41.60
2022-11-29T13:25:55.954Z,34.42
2022-11-29T13:31:02.725Z,36.47
2022-11-29T13:36:46.541Z,35.90
2022-11-29T13:41:50.784Z,37.58
2022-11-29T13:46:59.254Z,35.15
2022-11-29T13:52:05.775Z,35.83
2022-11-29T13:57:09.570Z,33.22
2022-11-29T14:02:31.576Z,34.33
2022-11-29T14:07:34.952Z,36.00
2022-11-29T14:12:54.073Z,35.28
2022-11-29T14:18:02.283Z,39.55
2022-11-29T14:23:06.665Z,35.05
2022-11-29T14:28:14.213Z,38.45
2022-11-29T14:38:39.952Z,35.53
2022-11-29T14:43:42.705Z,35.40
2022-11-29T14:48:56.697Z,36.90
2022-11-29T14:54:19.810Z,40.30
2022-11-29T14:59:53.088Z,35.03
2022-11-29T15:05:05.074Z,36.35
2022-11-29T15:10:17.812Z,38.95
2022-11-29T15:15:28.012Z,39.58
2022-11-29T15:20:55.084Z,33.40
2022-11-29T15:26:00.653Z,36.50
2022-11-29T15:31:08.557Z,34.95
2022-11-29T15:36:24.177Z,38.72
2022-11-29T15:41:30.728Z,35.00
2022-11-29T15:46:34.999Z,40.67
2022-11-29T15:51:38.587Z,45.83
2022-11-29T15:56:53.722Z,46.60
2022-11-29T16:01:58.769Z,50.10
2022-11-29T16:07:00.230Z,45.28
2022-11-29T16:12:02.618Z,44.67
2022-11-29T16:17:05.287Z,47.13
2022-11-29T16:22:16.629Z,45.03
2022-11-29T16:27:20.043Z,54.55
2022-11-29T16:32:33.867Z,53.28
2022-11-29T16:37:40.088Z,54.25
2022-11-29T16:42:43.783Z,58.92
2022-11-29T16:48:00.303Z,60.28
2022-11-29T16:53:37.638Z,52.60
2022-11-29T16:59:25.078Z,60.47
2022-11-29T17:04:01.303Z,60.38
2022-11-29T17:09:03.421Z,52.15
2022-11-29T17:14:04.779Z,53.83
2022-11-29T17:19:06.166Z,49.53
2022-11-29T17:24:12.773Z,53.33
2022-11-29T17:29:16.162Z,59.90
2022-11-29T17:34:17.593Z,68.47
2022-11-29T17:39:20.234Z,57.03
2022-11-29T17:44:21.692Z,55.67
2022-11-29T17:49:23.036Z,47.92
2022-11-29T17:54:24.581Z,54.85
2022-11-29T17:59:25.934Z,54.85
2022-11-29T18:04:27.405Z,52.88
2022-11-29T18:09:28.798Z,54.05
2022-11-29T18:14:30.944Z,56.90
2022-11-29T18:19:32.562Z,49.53
2022-11-29T18:24:34.156Z,46.95
2022-11-29T18:29:39.147Z,47.92
2022-11-29T18:34:40.811Z,47.90
2022-11-29T18:39:42.174Z,52.75
2022-11-29T18:44:43.652Z,48.40
2022-11-29T18:49:45.083Z,47.63
2022-11-29T18:54:46.687Z,49.08
2022-11-29T18:59:48.217Z,57.10
2022-11-29T19:04:50.182Z,48.17
2022-11-29T19:09:51.514Z,57.20
2022-11-29T19:14:53.299Z,65.30
2022-11-29T19:19:54.953Z,64.85
2022-11-29T19:24:56.366Z,58.38
2022-11-29T19:29:57.721Z,58.75
2022-11-29T19:34:59.068Z,54.72
2022-11-29T19:40:00.451Z,57.85
2022-11-29T19:45:16.337Z,56.03
2022-11-29T19:50:18.653Z,54.95
2022-11-29T19:55:20.024Z,48.35
2022-11-29T20:00:21.534Z,56.22
2022-11-29T20:05:22.910Z,52.22
2022-11-29T20:10:25.265Z,54.85
2022-11-29T20:15:26.626Z,63.85
2022-11-29T20:20:28.070Z,62.03
2022-11-29T20:25:29.637Z,59.90
2022-11-29T20:30:31.109Z,58.22
2022-11-29T20:35:32.700Z,60.72
2022-11-29T20:41:02.523Z,69.18
2022-11-29T20:46:04.785Z,55.00
2022-11-29T20:51:06.691Z,54.88
2022-11-29T20:56:10.371Z,63.67
2022-11-29T21:01:11.867Z,56.58
2022-11-29T21:06:13.338Z,53.97
2022-11-29T21:11:15.300Z,54.42
2022-11-29T21:16:17.120Z,58.03
2022-11-29T21:21:24.654Z,60.80
2022-11-29T21:26:34.071Z,67.75
2022-11-29T21:31:38.891Z,67.75
2022-11-29T21:36:40.738Z,65.50
2022-11-29T21:41:42.618Z,59.42
2022-11-29T21:46:44.114Z,48.42
2022-11-29T21:51:45.567Z,53.63
2022-11-29T21:56:47.013Z,52.13
2022-11-29T22:01:48.783Z,50.85
2022-11-29T22:06:50.272Z,47.42
2022-11-29T22:11:51.661Z,53.88
2022-11-29T22:16:55.187Z,50.60
2022-11-29T22:21:59.483Z,50.78
2022-11-29T22:27:01.671Z,50.17
2022-11-29T22:32:03.086Z,47.00
2022-11-29T22:37:04.425Z,48.05
2022-11-29T22:42:05.795Z,48.75
2022-11-29T22:47:07.196Z,50.90
2022-11-29T22:52:08.607Z,54.33
2022-11-29T22:57:09.991Z,52.88
2022-11-29T23:02:11.337Z,47.00
2022-11-29T23:07:12.689Z,45.72
2022-11-29T23:12:14.025Z,43.17
2022-11-29T23:17:15.394Z,38.17
2022-11-29T23:22:16.764Z,33.10
2022-11-29T23:27:18.185Z,32.20
2022-11-29T23:32:19.562Z,35.67
2022-11-29T23:37:20.895Z,35.97
2022-11-29T23:42:22.234Z,44.65
2022-11-29T23:47:23.898Z,39.00
2022-11-29T23:52:25.277Z,26.75
2022-11-29T23:57:29.278Z,30.90
